sensor_id;sensor_type;location;lat;lon;timestamp;P1;durP1;ratioP1;P2;durP2;ratioP2
13764;SDS011;6953;48.810;9.204;2024-03-25T00:01:22;0.52;;;0.52;;
13764;SDS011;6953;48.810;9.204;2024-03-25T00:03:48;0.70;;;0.70;;
13764;SDS011;6953;48.810;9.204;2024-03-25T00:06:13;0.60;;;0.60;;
13764;SDS011;6953;48.810;9.204;2024-03-25T00:08:39;0.57;;;0.57;;
13764;SDS011;6953;48.810;9.204;2024-03-25T00:11:04;0.70;;;0.70;;
13764;SDS011;6953;48.810;9.204;2024-03-25T00:13:29;0.75;;;0.75;;
13764;SDS011;6953;48.810;9.204;2024-03-25T00:15:54;0.60;;;0.60;;
13764;SDS011;6953;48.810;9.204;2024-03-25T00:18:20;0.60;;;0.60;;
13764;SDS011;6953;48.810;9.204;2024-03-25T00:20:45;0.70;;;0.70;;
13764;SDS011;6953;48.810;9.204;2024-03-25T00:23:10;0.70;;;0.70;;
13764;SDS011;6953;48.810;9.204;2024-03-25T00:25:36;0.80;;;0.80;;
13764;SDS011;6953;48.810;9.204;2024-03-25T00:28:02;0.63;;;0.63;;
13764;SDS011;6953;48.810;9.204;2024-03-25T00:30:27;0.70;;;0.70;;
13764;SDS011;6953;48.810;9.204;2024-03-25T00:32:52;0.80;;;0.80;;
13764;SDS011;6953;48.810;9.204;2024-03-25T00:35:18;0.80;;;0.80;;
13764;SDS011;6953;48.810;9.204;2024-03-25T00:37:43;0.70;;;0.70;;
13764;SDS011;6953;48.810;9.204;2024-03-25T00:40:09;0.70;;;0.70;;
13764;SDS011;6953;48.810;9.204;2024-03-25T00:42:36;0.80;;;0.80;;
13764;SDS011;6953;48.810;9.204;2024-03-25T00:45:01;0.50;;;0.50;;
13764;SDS011;6953;48.810;9.204;2024-03-25T00:47:27;0.70;;;0.70;;
13764;SDS011;6953;48.810;9.204;2024-03-25T00:49:52;0.70;;;0.70;;
13764;SDS011;6953;48.810;9.204;2024-03-25T00:52:18;0.60;;;0.60;;
13764;SDS011;6953;48.810;9.204;2024-03-25T00:54:43;0.77;;;0.77;;
13764;SDS011;6953;48.810;9.204;2024-03-25T00:57:08;0.70;;;0.70;;
13764;SDS011;6953;48.810;9.204;2024-03-25T00:59:34;0.65;;;0.65;;
13764;SDS011;6953;48.810;9.204;2024-03-25T01:01:59;0.70;;;0.70;;
13764;SDS011;6953;48.810;9.204;2024-03-25T01:04:24;0.60;;;0.60;;
13764;SDS011;6953;48.810;9.204;2024-03-25T01:06:50;0.60;;;0.60;;
13764;SDS011;6953;48.810;9.204;2024-03-25T01:09:15;0.60;;;0.60;;
13764;SDS011;6953;48.810;9.204;2024-03-25T01:11:41;0.70;;;0.70;;
13764;SDS011;6953;48.810;9.204;2024-03-25T01:14:06;0.70;;;0.70;;
13764;SDS011;6953;48.810;9.204;2024-03-25T01:16:32;0.70;;;0.70;;
13764;SDS011;6953;48.810;9.204;2024-03-25T01:18:57;0.70;;;0.70;;
13764;SDS011;6953;48.810;9.204;2024-03-25T01:21:23;0.70;;;0.70;;
13764;SDS011;6953;48.810;9.204;2024-03-25T01:23:49;0.80;;;0.80;;
13764;SDS011;6953;48.810;9.204;2024-03-25T01:26:14;0.70;;;0.70;;
13764;SDS011;6953;48.810;9.204;2024-03-25T01:28:40;0.70;;;0.70;;
13764;SDS011;6953;48.810;9.204;2024-03-25T01:31:05;0.80;;;0.80;;
13764;SDS011;6953;48.810;9.204;2024-03-25T01:33:30;0.60;;;0.60;;
13764;SDS011;6953;48.810;9.204;2024-03-25T01:35:55;0.70;;;0.70;;
13764;SDS011;6953;48.810;9.204;2024-03-25T01:38:21;0.63;;;0.63;;
13764;SDS011;6953;48.810;9.204;2024-03-25T01:40:47;0.60;;;0.60;;
13764;SDS011;6953;48.810;9.204;2024-03-25T01:43:12;0.70;;;0.70;;
13764;SDS011;6953;48.810;9.204;2024-03-25T01:45:38;0.70;;;0.70;;
13764;SDS011;6953;48.810;9.204;2024-03-25T01:48:06;0.50;;;0.50;;
13764;SDS011;6953;48.810;9.204;2024-03-25T01:50:33;0.70;;;0.70;;
13764;SDS011;6953;48.810;9.204;2024-03-25T01:53:01;0.70;;;0.70;;
13764;SDS011;6953;48.810;9.204;2024-03-25T01:55:28;0.70;;;0.70;;
13764;SDS011;6953;48.810;9.204;2024-03-25T01:57:55;0.70;;;0.70;;
13764;SDS011;6953;48.810;9.204;2024-03-25T02:00:21;0.60;;;0.60;;
13764;SDS011;6953;48.810;9.204;2024-03-25T02:02:47;0.70;;;0.70;;
13764;SDS011;6953;48.810;9.204;2024-03-25T02:05:14;0.60;;;0.60;;
13764;SDS011;6953;48.810;9.204;2024-03-25T02:07:40;0.70;;;0.70;;
13764;SDS011;6953;48.810;9.204;2024-03-25T02:10:07;0.50;;;0.50;;
13764;SDS011;6953;48.810;9.204;2024-03-25T02:12:35;0.53;;;0.53;;
13764;SDS011;6953;48.810;9.204;2024-03-25T02:15:01;0.70;;;0.70;;
13764;SDS011;6953;48.810;9.204;2024-03-25T02:17:26;0.60;;;0.60;;
13764;SDS011;6953;48.810;9.204;2024-03-25T02:19:51;0.60;;;0.60;;
13764;SDS011;6953;48.810;9.204;2024-03-25T02:22:18;0.70;;;0.70;;
13764;SDS011;6953;48.810;9.204;2024-03-25T02:24:45;0.60;;;0.60;;
13764;SDS011;6953;48.810;9.204;2024-03-25T02:27:10;0.60;;;0.60;;
13764;SDS011;6953;48.810;9.204;2024-03-25T02:29:39;0.60;;;0.60;;
13764;SDS011;6953;48.810;9.204;2024-03-25T02:32:05;0.70;;;0.70;;
13764;SDS011;6953;48.810;9.204;2024-03-25T02:34:31;0.60;;;0.60;;
13764;SDS011;6953;48.810;9.204;2024-03-25T02:36:56;0.53;;;0.53;;
13764;SDS011;6953;48.810;9.204;2024-03-25T02:39:22;0.70;;;0.70;;
13764;SDS011;6953;48.810;9.204;2024-03-25T02:41:49;0.60;;;0.60;;
13764;SDS011;6953;48.810;9.204;2024-03-25T02:44:15;0.70;;;0.70;;
13764;SDS011;6953;48.810;9.204;2024-03-25T02:46:40;0.60;;;0.60;;
13764;SDS011;6953;48.810;9.204;2024-03-25T02:49:06;0.60;;;0.60;;
13764;SDS011;6953;48.810;9.204;2024-03-25T02:51:31;0.60;;;0.60;;
13764;SDS011;6953;48.810;9.204;2024-03-25T02:53:56;0.50;;;0.50;;
13764;SDS011;6953;48.810;9.204;2024-03-25T02:56:22;0.57;;;0.57;;
13764;SDS011;6953;48.810;9.204;2024-03-25T02:58:47;0.60;;;0.60;;
13764;SDS011;6953;48.810;9.204;2024-03-25T03:01:12;0.70;;;0.70;;
13764;SDS011;6953;48.810;9.204;2024-03-25T03:03:37;0.70;;;0.70;;
13764;SDS011;6953;48.810;9.204;2024-03-25T03:06:03;0.63;;;0.63;;
13764;SDS011;6953;48.810;9.204;2024-03-25T03:08:28;0.60;;;0.60;;
13764;SDS011;6953;48.810;9.204;2024-03-25T03:10:53;0.60;;;0.60;;
13764;SDS011;6953;48.810;9.204;2024-03-25T03:13:19;0.70;;;0.70;;
13764;SDS011;6953;48.810;9.204;2024-03-25T03:15:44;0.77;;;0.77;;
13764;SDS011;6953;48.810;9.204;2024-03-25T03:18:10;0.50;;;0.50;;
13764;SDS011;6953;48.810;9.204;2024-03-25T03:20:35;0.47;;;0.47;;
13764;SDS011;6953;48.810;9.204;2024-03-25T03:23:01;0.63;;;0.63;;
13764;SDS011;6953;48.810;9.204;2024-03-25T03:25:26;0.65;;;0.65;;
13764;SDS011;6953;48.810;9.204;2024-03-25T03:27:51;0.60;;;0.60;;
13764;SDS011;6953;48.810;9.204;2024-03-25T03:30:16;0.68;;;0.68;;
13764;SDS011;6953;48.810;9.204;2024-03-25T03:32:42;0.60;;;0.60;;
13764;SDS011;6953;48.810;9.204;2024-03-25T03:35:07;0.70;;;0.70;;
13764;SDS011;6953;48.810;9.204;2024-03-25T03:37:32;0.68;;;0.68;;
13764;SDS011;6953;48.810;9.204;2024-03-25T03:39:58;0.60;;;0.60;;
13764;SDS011;6953;48.810;9.204;2024-03-25T03:42:23;0.73;;;0.73;;
13764;SDS011;6953;48.810;9.204;2024-03-25T03:44:48;0.60;;;0.60;;
13764;SDS011;6953;48.810;9.204;2024-03-25T03:47:13;0.70;;;0.70;;
13764;SDS011;6953;48.810;9.204;2024-03-25T03:49:39;0.50;;;0.50;;
13764;SDS011;6953;48.810;9.204;2024-03-25T03:52:04;0.60;;;0.60;;
13764;SDS011;6953;48.810;9.204;2024-03-25T03:54:29;0.60;;;0.60;;
13764;SDS011;6953;48.810;9.204;2024-03-25T03:56:55;0.70;;;0.70;;
13764;SDS011;6953;48.810;9.204;2024-03-25T03:59:20;0.60;;;0.60;;
13764;SDS011;6953;48.810;9.204;2024-03-25T04:01:46;0.70;;;0.70;;
13764;SDS011;6953;48.810;9.204;2024-03-25T04:04:11;0.70;;;0.70;;
13764;SDS011;6953;48.810;9.204;2024-03-25T04:06:36;0.60;;;0.60;;
13764;SDS011;6953;48.810;9.204;2024-03-25T04:09:01;0.70;;;0.70;;
13764;SDS011;6953;48.810;9.204;2024-03-25T04:11:27;0.70;;;0.70;;
13764;SDS011;6953;48.810;9.204;2024-03-25T04:13:52;0.80;;;0.80;;
13764;SDS011;6953;48.810;9.204;2024-03-25T04:16:17;0.60;;;0.60;;
13764;SDS011;6953;48.810;9.204;2024-03-25T04:18:43;0.70;;;0.70;;
13764;SDS011;6953;48.810;9.204;2024-03-25T04:21:11;0.60;;;0.60;;
13764;SDS011;6953;48.810;9.204;2024-03-25T04:23:37;0.60;;;0.60;;
13764;SDS011;6953;48.810;9.204;2024-03-25T04:26:03;0.53;;;0.53;;
13764;SDS011;6953;48.810;9.204;2024-03-25T04:28:31;0.70;;;0.70;;
13764;SDS011;6953;48.810;9.204;2024-03-25T04:30:56;0.60;;;0.60;;
13764;SDS011;6953;48.810;9.204;2024-03-25T04:33:21;0.70;;;0.70;;
13764;SDS011;6953;48.810;9.204;2024-03-25T04:35:47;0.60;;;0.60;;
13764;SDS011;6953;48.810;9.204;2024-03-25T04:38:12;0.60;;;0.60;;
13764;SDS011;6953;48.810;9.204;2024-03-25T04:40:38;0.60;;;0.60;;
13764;SDS011;6953;48.810;9.204;2024-03-25T04:43:04;0.68;;;0.68;;
13764;SDS011;6953;48.810;9.204;2024-03-25T04:45:30;0.60;;;0.60;;
13764;SDS011;6953;48.810;9.204;2024-03-25T04:47:55;0.70;;;0.70;;
13764;SDS011;6953;48.810;9.204;2024-03-25T04:50:20;0.70;;;0.70;;
13764;SDS011;6953;48.810;9.204;2024-03-25T04:52:45;0.70;;;0.70;;
13764;SDS011;6953;48.810;9.204;2024-03-25T04:55:11;0.70;;;0.70;;
13764;SDS011;6953;48.810;9.204;2024-03-25T04:57:36;0.70;;;0.70;;
13764;SDS011;6953;48.810;9.204;2024-03-25T05:00:01;0.70;;;0.70;;
13764;SDS011;6953;48.810;9.204;2024-03-25T05:02:27;0.70;;;0.70;;
13764;SDS011;6953;48.810;9.204;2024-03-25T05:04:52;0.70;;;0.70;;
13764;SDS011;6953;48.810;9.204;2024-03-25T05:07:18;0.63;;;0.63;;
13764;SDS011;6953;48.810;9.204;2024-03-25T05:09:43;0.70;;;0.70;;
13764;SDS011;6953;48.810;9.204;2024-03-25T05:12:09;0.70;;;0.70;;
13764;SDS011;6953;48.810;9.204;2024-03-25T05:14:35;0.70;;;0.70;;
13764;SDS011;6953;48.810;9.204;2024-03-25T05:17:00;0.67;;;0.67;;
13764;SDS011;6953;48.810;9.204;2024-03-25T05:19:28;0.70;;;0.70;;
13764;SDS011;6953;48.810;9.204;2024-03-25T05:21:53;0.70;;;0.70;;
13764;SDS011;6953;48.810;9.204;2024-03-25T05:24:19;0.70;;;0.70;;
13764;SDS011;6953;48.810;9.204;2024-03-25T05:26:44;0.70;;;0.70;;
13764;SDS011;6953;48.810;9.204;2024-03-25T05:29:09;0.77;;;0.77;;
13764;SDS011;6953;48.810;9.204;2024-03-25T05:31:35;0.70;;;0.70;;
13764;SDS011;6953;48.810;9.204;2024-03-25T05:34:00;0.60;;;0.60;;
13764;SDS011;6953;48.810;9.204;2024-03-25T05:36:27;0.70;;;0.70;;
13764;SDS011;6953;48.810;9.204;2024-03-25T05:38:53;0.70;;;0.70;;
13764;SDS011;6953;48.810;9.204;2024-03-25T05:41:18;0.70;;;0.70;;
13764;SDS011;6953;48.810;9.204;2024-03-25T05:43:43;0.70;;;0.70;;
13764;SDS011;6953;48.810;9.204;2024-03-25T05:46:09;0.70;;;0.70;;
13764;SDS011;6953;48.810;9.204;2024-03-25T05:48:34;0.60;;;0.60;;
13764;SDS011;6953;48.810;9.204;2024-03-25T05:51:03;0.80;;;0.80;;
13764;SDS011;6953;48.810;9.204;2024-03-25T05:53:31;0.80;;;0.80;;
13764;SDS011;6953;48.810;9.204;2024-03-25T05:56:03;0.60;;;0.60;;
13764;SDS011;6953;48.810;9.204;2024-03-25T05:58:28;0.77;;;0.77;;
13764;SDS011;6953;48.810;9.204;2024-03-25T06:00:54;0.80;;;0.80;;
13764;SDS011;6953;48.810;9.204;2024-03-25T06:03:19;0.80;;;0.80;;
13764;SDS011;6953;48.810;9.204;2024-03-25T06:05:45;0.60;;;0.60;;
13764;SDS011;6953;48.810;9.204;2024-03-25T06:08:11;0.80;;;0.80;;
13764;SDS011;6953;48.810;9.204;2024-03-25T06:10:49;0.70;;;0.70;;
13764;SDS011;6953;48.810;9.204;2024-03-25T06:13:15;0.70;;;0.70;;
13764;SDS011;6953;48.810;9.204;2024-03-25T06:15:40;0.70;;;0.70;;
13764;SDS011;6953;48.810;9.204;2024-03-25T06:18:05;0.70;;;0.70;;
13764;SDS011;6953;48.810;9.204;2024-03-25T06:20:31;0.70;;;0.70;;
13764;SDS011;6953;48.810;9.204;2024-03-25T06:22:56;0.60;;;0.60;;
13764;SDS011;6953;48.810;9.204;2024-03-25T06:25:22;0.63;;;0.63;;
13764;SDS011;6953;48.810;9.204;2024-03-25T06:27:47;0.70;;;0.70;;
13764;SDS011;6953;48.810;9.204;2024-03-25T06:30:12;0.70;;;0.70;;
13764;SDS011;6953;48.810;9.204;2024-03-25T06:32:56;0.55;;;0.55;;
13764;SDS011;6953;48.810;9.204;2024-03-25T06:35:43;0.65;;;0.65;;
13764;SDS011;6953;48.810;9.204;2024-03-25T06:38:09;0.60;;;0.60;;
13764;SDS011;6953;48.810;9.204;2024-03-25T06:40:35;0.70;;;0.70;;
13764;SDS011;6953;48.810;9.204;2024-03-25T06:43:01;0.60;;;0.60;;
13764;SDS011;6953;48.810;9.204;2024-03-25T06:45:26;0.70;;;0.70;;
13764;SDS011;6953;48.810;9.204;2024-03-25T06:47:51;0.60;;;0.60;;
13764;SDS011;6953;48.810;9.204;2024-03-25T06:50:17;0.60;;;0.60;;
13764;SDS011;6953;48.810;9.204;2024-03-25T06:52:42;0.60;;;0.60;;
13764;SDS011;6953;48.810;9.204;2024-03-25T06:55:08;0.70;;;0.70;;
13764;SDS011;6953;48.810;9.204;2024-03-25T06:57:33;0.60;;;0.60;;
13764;SDS011;6953;48.810;9.204;2024-03-25T06:59:58;0.70;;;0.70;;
13764;SDS011;6953;48.810;9.204;2024-03-25T07:02:24;0.60;;;0.60;;
13764;SDS011;6953;48.810;9.204;2024-03-25T07:04:49;0.60;;;0.60;;
13764;SDS011;6953;48.810;9.204;2024-03-25T07:07:14;0.60;;;0.60;;
13764;SDS011;6953;48.810;9.204;2024-03-25T07:09:40;0.60;;;0.60;;
13764;SDS011;6953;48.810;9.204;2024-03-25T07:12:05;0.60;;;0.60;;
13764;SDS011;6953;48.810;9.204;2024-03-25T07:14:31;0.40;;;0.40;;
13764;SDS011;6953;48.810;9.204;2024-03-25T07:16:57;0.40;;;0.40;;
13764;SDS011;6953;48.810;9.204;2024-03-25T07:19:22;0.40;;;0.40;;
13764;SDS011;6953;48.810;9.204;2024-03-25T07:21:47;0.40;;;0.40;;
13764;SDS011;6953;48.810;9.204;2024-03-25T07:24:13;0.40;;;0.40;;
13764;SDS011;6953;48.810;9.204;2024-03-25T07:26:38;0.30;;;0.30;;
13764;SDS011;6953;48.810;9.204;2024-03-25T07:29:03;0.40;;;0.40;;
13764;SDS011;6953;48.810;9.204;2024-03-25T07:31:28;0.30;;;0.30;;
13764;SDS011;6953;48.810;9.204;2024-03-25T07:33:54;0.30;;;0.30;;
13764;SDS011;6953;48.810;9.204;2024-03-25T07:36:19;0.30;;;0.30;;
13764;SDS011;6953;48.810;9.204;2024-03-25T07:38:44;0.17;;;0.17;;
13764;SDS011;6953;48.810;9.204;2024-03-25T07:41:09;0.20;;;0.20;;
13764;SDS011;6953;48.810;9.204;2024-03-25T07:43:35;0.30;;;0.30;;
13764;SDS011;6953;48.810;9.204;2024-03-25T07:46:00;0.20;;;0.20;;
13764;SDS011;6953;48.810;9.204;2024-03-25T07:48:25;0.30;;;0.30;;
13764;SDS011;6953;48.810;9.204;2024-03-25T07:50:50;0.20;;;0.20;;
13764;SDS011;6953;48.810;9.204;2024-03-25T07:53:16;0.20;;;0.20;;
13764;SDS011;6953;48.810;9.204;2024-03-25T07:55:41;0.30;;;0.30;;
13764;SDS011;6953;48.810;9.204;2024-03-25T07:58:06;0.30;;;0.30;;
13764;SDS011;6953;48.810;9.204;2024-03-25T08:00:32;0.30;;;0.30;;
13764;SDS011;6953;48.810;9.204;2024-03-25T08:02:57;0.30;;;0.30;;
13764;SDS011;6953;48.810;9.204;2024-03-25T08:05:22;0.40;;;0.40;;
13764;SDS011;6953;48.810;9.204;2024-03-25T08:07:47;0.20;;;0.20;;
13764;SDS011;6953;48.810;9.204;2024-03-25T08:10:13;0.38;;;0.38;;
13764;SDS011;6953;48.810;9.204;2024-03-25T08:12:38;0.30;;;0.30;;
13764;SDS011;6953;48.810;9.204;2024-03-25T08:15:04;0.20;;;0.20;;
13764;SDS011;6953;48.810;9.204;2024-03-25T08:17:29;0.30;;;0.30;;
13764;SDS011;6953;48.810;9.204;2024-03-25T08:19:55;0.20;;;0.20;;
13764;SDS011;6953;48.810;9.204;2024-03-25T08:22:20;0.20;;;0.20;;
13764;SDS011;6953;48.810;9.204;2024-03-25T08:24:45;0.20;;;0.20;;
13764;SDS011;6953;48.810;9.204;2024-03-25T08:27:11;0.20;;;0.20;;
13764;SDS011;6953;48.810;9.204;2024-03-25T08:29:36;0.10;;;0.10;;
13764;SDS011;6953;48.810;9.204;2024-03-25T08:32:01;0.10;;;0.10;;
13764;SDS011;6953;48.810;9.204;2024-03-25T08:34:27;0.10;;;0.10;;
13764;SDS011;6953;48.810;9.204;2024-03-25T08:36:52;0.10;;;0.10;;
13764;SDS011;6953;48.810;9.204;2024-03-25T08:39:17;0.10;;;0.10;;
13764;SDS011;6953;48.810;9.204;2024-03-25T08:41:43;0.10;;;0.10;;
13764;SDS011;6953;48.810;9.204;2024-03-25T08:44:08;0.08;;;0.08;;
13764;SDS011;6953;48.810;9.204;2024-03-25T08:46:34;0.10;;;0.10;;
13764;SDS011;6953;48.810;9.204;2024-03-25T08:49:00;0.10;;;0.10;;
13764;SDS011;6953;48.810;9.204;2024-03-25T08:51:25;0.10;;;0.10;;
13764;SDS011;6953;48.810;9.204;2024-03-25T08:53:51;0.10;;;0.10;;
13764;SDS011;6953;48.810;9.204;2024-03-25T08:56:16;0.10;;;0.10;;
13764;SDS011;6953;48.810;9.204;2024-03-25T08:58:41;0.10;;;0.10;;
13764;SDS011;6953;48.810;9.204;2024-03-25T09:01:06;0.00;;;0.00;;
13764;SDS011;6953;48.810;9.204;2024-03-25T09:03:34;0.10;;;0.10;;
13764;SDS011;6953;48.810;9.204;2024-03-25T09:05:59;0.10;;;0.10;;
13764;SDS011;6953;48.810;9.204;2024-03-25T09:08:28;0.00;;;0.00;;
13764;SDS011;6953;48.810;9.204;2024-03-25T09:11:01;0.10;;;0.10;;
13764;SDS011;6953;48.810;9.204;2024-03-25T09:13:32;0.10;;;0.10;;
13764;SDS011;6953;48.810;9.204;2024-03-25T09:15:58;0.10;;;0.10;;
13764;SDS011;6953;48.810;9.204;2024-03-25T09:18:23;0.10;;;0.10;;
13764;SDS011;6953;48.810;9.204;2024-03-25T09:20:48;0.10;;;0.10;;
13764;SDS011;6953;48.810;9.204;2024-03-25T09:23:14;0.10;;;0.10;;
13764;SDS011;6953;48.810;9.204;2024-03-25T09:25:39;0.15;;;0.15;;
13764;SDS011;6953;48.810;9.204;2024-03-25T09:28:04;0.10;;;0.10;;
13764;SDS011;6953;48.810;9.204;2024-03-25T09:30:31;0.20;;;0.20;;
13764;SDS011;6953;48.810;9.204;2024-03-25T09:32:56;0.20;;;0.20;;
13764;SDS011;6953;48.810;9.204;2024-03-25T09:35:22;0.20;;;0.20;;
13764;SDS011;6953;48.810;9.204;2024-03-25T09:37:47;0.30;;;0.30;;
13764;SDS011;6953;48.810;9.204;2024-03-25T09:40:13;0.20;;;0.20;;
13764;SDS011;6953;48.810;9.204;2024-03-25T09:42:47;0.20;;;0.20;;
13764;SDS011;6953;48.810;9.204;2024-03-25T09:45:16;0.20;;;0.20;;
13764;SDS011;6953;48.810;9.204;2024-03-25T09:47:46;0.10;;;0.10;;
13764;SDS011;6953;48.810;9.204;2024-03-25T09:50:12;0.20;;;0.20;;
13764;SDS011;6953;48.810;9.204;2024-03-25T09:52:41;0.10;;;0.10;;
13764;SDS011;6953;48.810;9.204;2024-03-25T09:55:06;0.10;;;0.10;;
13764;SDS011;6953;48.810;9.204;2024-03-25T09:57:32;0.10;;;0.10;;
13764;SDS011;6953;48.810;9.204;2024-03-25T09:59:59;0.10;;;0.10;;
13764;SDS011;6953;48.810;9.204;2024-03-25T10:02:25;0.03;;;0.03;;
13764;SDS011;6953;48.810;9.204;2024-03-25T10:04:51;0.10;;;0.10;;
13764;SDS011;6953;48.810;9.204;2024-03-25T10:07:21;0.10;;;0.10;;
13764;SDS011;6953;48.810;9.204;2024-03-25T10:09:48;0.10;;;0.10;;
13764;SDS011;6953;48.810;9.204;2024-03-25T10:12:14;0.05;;;0.05;;
13764;SDS011;6953;48.810;9.204;2024-03-25T10:14:39;0.00;;;0.00;;
13764;SDS011;6953;48.810;9.204;2024-03-25T10:17:05;0.10;;;0.10;;
13764;SDS011;6953;48.810;9.204;2024-03-25T10:19:32;0.00;;;0.00;;
13764;SDS011;6953;48.810;9.204;2024-03-25T10:22:04;0.00;;;0.00;;
13764;SDS011;6953;48.810;9.204;2024-03-25T10:24:37;0.10;;;0.10;;
13764;SDS011;6953;48.810;9.204;2024-03-25T10:27:09;0.10;;;0.10;;
13764;SDS011;6953;48.810;9.204;2024-03-25T10:29:36;0.10;;;0.10;;
13764;SDS011;6953;48.810;9.204;2024-03-25T10:32:02;0.00;;;0.00;;
13764;SDS011;6953;48.810;9.204;2024-03-25T10:34:29;0.00;;;0.00;;
13764;SDS011;6953;48.810;9.204;2024-03-25T10:36:56;0.00;;;0.00;;
13764;SDS011;6953;48.810;9.204;2024-03-25T10:39:24;0.10;;;0.10;;
13764;SDS011;6953;48.810;9.204;2024-03-25T10:41:52;0.05;;;0.05;;
13764;SDS011;6953;48.810;9.204;2024-03-25T10:44:22;0.00;;;0.00;;
13764;SDS011;6953;48.810;9.204;2024-03-25T10:46:53;0.10;;;0.10;;
13764;SDS011;6953;48.810;9.204;2024-03-25T10:49:32;0.10;;;0.10;;
13764;SDS011;6953;48.810;9.204;2024-03-25T10:52:03;0.00;;;0.00;;
13764;SDS011;6953;48.810;9.204;2024-03-25T10:54:30;0.00;;;0.00;;
13764;SDS011;6953;48.810;9.204;2024-03-25T10:56:57;0.00;;;0.00;;
13764;SDS011;6953;48.810;9.204;2024-03-25T10:59:23;0.00;;;0.00;;
13764;SDS011;6953;48.810;9.204;2024-03-25T11:01:51;0.10;;;0.10;;
13764;SDS011;6953;48.810;9.204;2024-03-25T11:04:16;0.10;;;0.10;;
13764;SDS011;6953;48.810;9.204;2024-03-25T11:06:42;0.10;;;0.10;;
13764;SDS011;6953;48.810;9.204;2024-03-25T11:09:07;0.10;;;0.10;;
13764;SDS011;6953;48.810;9.204;2024-03-25T11:11:33;0.10;;;0.10;;
13764;SDS011;6953;48.810;9.204;2024-03-25T11:13:58;0.00;;;0.00;;
13764;SDS011;6953;48.810;9.204;2024-03-25T11:16:30;0.03;;;0.03;;
13764;SDS011;6953;48.810;9.204;2024-03-25T11:19:02;0.00;;;0.00;;
13764;SDS011;6953;48.810;9.204;2024-03-25T11:21:28;0.00;;;0.00;;
13764;SDS011;6953;48.810;9.204;2024-03-25T11:23:53;0.00;;;0.00;;
13764;SDS011;6953;48.810;9.204;2024-03-25T11:26:19;0.10;;;0.10;;
13764;SDS011;6953;48.810;9.204;2024-03-25T11:28:55;0.10;;;0.10;;
13764;SDS011;6953;48.810;9.204;2024-03-25T11:31:21;0.00;;;0.00;;
13764;SDS011;6953;48.810;9.204;2024-03-25T11:33:50;0.10;;;0.10;;
13764;SDS011;6953;48.810;9.204;2024-03-25T11:36:16;0.00;;;0.00;;
13764;SDS011;6953;48.810;9.204;2024-03-25T11:38:43;0.00;;;0.00;;
13764;SDS011;6953;48.810;9.204;2024-03-25T11:41:12;0.10;;;0.10;;
13764;SDS011;6953;48.810;9.204;2024-03-25T11:43:41;0.10;;;0.10;;
13764;SDS011;6953;48.810;9.204;2024-03-25T11:46:07;0.10;;;0.10;;
13764;SDS011;6953;48.810;9.204;2024-03-25T11:48:32;0.10;;;0.10;;
13764;SDS011;6953;48.810;9.204;2024-03-25T11:50:58;0.10;;;0.10;;
13764;SDS011;6953;48.810;9.204;2024-03-25T11:53:24;0.10;;;0.10;;
13764;SDS011;6953;48.810;9.204;2024-03-25T11:55:50;0.20;;;0.20;;
13764;SDS011;6953;48.810;9.204;2024-03-25T11:58:16;0.20;;;0.20;;
13764;SDS011;6953;48.810;9.204;2024-03-25T12:00:45;0.20;;;0.20;;
13764;SDS011;6953;48.810;9.204;2024-03-25T12:03:14;0.20;;;0.20;;
13764;SDS011;6953;48.810;9.204;2024-03-25T12:05:40;0.10;;;0.10;;
13764;SDS011;6953;48.810;9.204;2024-03-25T12:08:08;0.10;;;0.10;;
13764;SDS011;6953;48.810;9.204;2024-03-25T12:10:35;0.20;;;0.20;;
13764;SDS011;6953;48.810;9.204;2024-03-25T12:13:20;0.20;;;0.20;;
13764;SDS011;6953;48.810;9.204;2024-03-25T12:15:45;0.15;;;0.15;;
13764;SDS011;6953;48.810;9.204;2024-03-25T12:18:11;0.10;;;0.10;;
13764;SDS011;6953;48.810;9.204;2024-03-25T12:20:36;0.10;;;0.10;;
13764;SDS011;6953;48.810;9.204;2024-03-25T12:23:03;0.10;;;0.10;;
13764;SDS011;6953;48.810;9.204;2024-03-25T12:25:29;0.10;;;0.10;;
13764;SDS011;6953;48.810;9.204;2024-03-25T12:27:54;0.10;;;0.10;;
13764;SDS011;6953;48.810;9.204;2024-03-25T12:30:19;0.10;;;0.10;;
13764;SDS011;6953;48.810;9.204;2024-03-25T12:32:45;0.03;;;0.03;;
13764;SDS011;6953;48.810;9.204;2024-03-25T12:35:11;0.10;;;0.10;;
13764;SDS011;6953;48.810;9.204;2024-03-25T12:37:38;0.00;;;0.00;;
13764;SDS011;6953;48.810;9.204;2024-03-25T12:40:06;0.10;;;0.10;;
13764;SDS011;6953;48.810;9.204;2024-03-25T12:42:34;0.10;;;0.10;;
13764;SDS011;6953;48.810;9.204;2024-03-25T12:44:59;0.10;;;0.10;;
13764;SDS011;6953;48.810;9.204;2024-03-25T12:47:25;0.10;;;0.10;;
13764;SDS011;6953;48.810;9.204;2024-03-25T12:49:51;0.10;;;0.10;;
13764;SDS011;6953;48.810;9.204;2024-03-25T12:52:16;0.10;;;0.10;;
13764;SDS011;6953;48.810;9.204;2024-03-25T12:54:43;0.10;;;0.10;;
13764;SDS011;6953;48.810;9.204;2024-03-25T12:57:11;0.10;;;0.10;;
13764;SDS011;6953;48.810;9.204;2024-03-25T12:59:37;0.10;;;0.10;;
13764;SDS011;6953;48.810;9.204;2024-03-25T13:02:02;0.10;;;0.10;;
13764;SDS011;6953;48.810;9.204;2024-03-25T13:04:27;0.10;;;0.10;;
13764;SDS011;6953;48.810;9.204;2024-03-25T13:06:53;0.10;;;0.10;;
13764;SDS011;6953;48.810;9.204;2024-03-25T13:09:18;0.10;;;0.10;;
13764;SDS011;6953;48.810;9.204;2024-03-25T13:11:44;0.10;;;0.10;;
13764;SDS011;6953;48.810;9.204;2024-03-25T13:14:11;0.10;;;0.10;;
13764;SDS011;6953;48.810;9.204;2024-03-25T13:16:37;0.10;;;0.10;;
13764;SDS011;6953;48.810;9.204;2024-03-25T13:19:02;0.10;;;0.10;;
13764;SDS011;6953;48.810;9.204;2024-03-25T13:21:28;0.10;;;0.10;;
13764;SDS011;6953;48.810;9.204;2024-03-25T13:23:53;0.10;;;0.10;;
13764;SDS011;6953;48.810;9.204;2024-03-25T13:26:18;0.10;;;0.10;;
13764;SDS011;6953;48.810;9.204;2024-03-25T13:28:44;0.10;;;0.10;;
13764;SDS011;6953;48.810;9.204;2024-03-25T13:31:10;0.10;;;0.10;;
13764;SDS011;6953;48.810;9.204;2024-03-25T13:33:35;0.10;;;0.10;;
13764;SDS011;6953;48.810;9.204;2024-03-25T13:36:01;0.10;;;0.10;;
13764;SDS011;6953;48.810;9.204;2024-03-25T13:38:27;0.10;;;0.10;;
13764;SDS011;6953;48.810;9.204;2024-03-25T13:40:52;0.10;;;0.10;;
13764;SDS011;6953;48.810;9.204;2024-03-25T13:43:18;0.10;;;0.10;;
13764;SDS011;6953;48.810;9.204;2024-03-25T13:45:47;0.10;;;0.10;;
13764;SDS011;6953;48.810;9.204;2024-03-25T13:48:13;0.10;;;0.10;;
13764;SDS011;6953;48.810;9.204;2024-03-25T13:50:39;0.15;;;0.15;;
13764;SDS011;6953;48.810;9.204;2024-03-25T13:53:05;0.20;;;0.20;;
13764;SDS011;6953;48.810;9.204;2024-03-25T13:55:30;0.10;;;0.10;;
13764;SDS011;6953;48.810;9.204;2024-03-25T13:57:56;0.20;;;0.20;;
13764;SDS011;6953;48.810;9.204;2024-03-25T14:00:21;0.20;;;0.20;;
13764;SDS011;6953;48.810;9.204;2024-03-25T14:02:47;0.20;;;0.20;;
13764;SDS011;6953;48.810;9.204;2024-03-25T14:05:12;0.20;;;0.20;;
13764;SDS011;6953;48.810;9.204;2024-03-25T14:07:38;0.20;;;0.20;;
13764;SDS011;6953;48.810;9.204;2024-03-25T14:10:03;0.20;;;0.20;;
13764;SDS011;6953;48.810;9.204;2024-03-25T14:12:29;0.30;;;0.30;;
13764;SDS011;6953;48.810;9.204;2024-03-25T14:14:54;0.20;;;0.20;;
13764;SDS011;6953;48.810;9.204;2024-03-25T14:17:20;0.30;;;0.30;;
13764;SDS011;6953;48.810;9.204;2024-03-25T14:19:45;0.20;;;0.20;;
13764;SDS011;6953;48.810;9.204;2024-03-25T14:22:10;0.20;;;0.20;;
13764;SDS011;6953;48.810;9.204;2024-03-25T14:24:36;0.30;;;0.30;;
13764;SDS011;6953;48.810;9.204;2024-03-25T14:27:01;0.22;;;0.22;;
13764;SDS011;6953;48.810;9.204;2024-03-25T14:29:26;0.30;;;0.30;;
13764;SDS011;6953;48.810;9.204;2024-03-25T14:31:52;0.40;;;0.40;;
13764;SDS011;6953;48.810;9.204;2024-03-25T14:34:17;0.30;;;0.30;;
13764;SDS011;6953;48.810;9.204;2024-03-25T14:36:42;0.30;;;0.30;;
13764;SDS011;6953;48.810;9.204;2024-03-25T14:39:09;0.30;;;0.30;;
13764;SDS011;6953;48.810;9.204;2024-03-25T14:41:40;0.30;;;0.30;;
13764;SDS011;6953;48.810;9.204;2024-03-25T14:44:05;0.30;;;0.30;;
13764;SDS011;6953;48.810;9.204;2024-03-25T14:46:31;0.40;;;0.40;;
13764;SDS011;6953;48.810;9.204;2024-03-25T14:48:56;0.40;;;0.40;;
13764;SDS011;6953;48.810;9.204;2024-03-25T14:51:22;0.40;;;0.40;;
13764;SDS011;6953;48.810;9.204;2024-03-25T14:53:47;0.30;;;0.30;;